sensor_id;sensor_type;location;lat;lon;timestamp;temperature;humidity
73568;SHT30;61847;54.994;73.310;2022-08-21T00:00:38;13.04;77.47
73568;SHT30;61847;54.994;73.310;2022-08-21T00:03:06;13.04;77.50
73568;SHT30;61847;54.994;73.310;2022-08-21T00:05:37;12.97;77.72
73568;SHT30;61847;54.994;73.310;2022-08-21T00:08:05;12.95;77.84
73568;SHT30;61847;54.994;73.310;2022-08-21T00:10:31;12.98;77.69
73568;SHT30;61847;54.994;73.310;2022-08-21T00:12:57;13.05;77.73
73568;SHT30;61847;54.994;73.310;2022-08-21T00:15:27;13.02;78.05
73568;SHT30;61847;54.994;73.310;2022-08-21T00:17:54;13.01;77.97
73568;SHT30;61847;54.994;73.310;2022-08-21T00:20:21;13.02;77.86
73568;SHT30;61847;54.994;73.310;2022-08-21T00:22:51;13.08;77.59
73568;SHT30;61847;54.994;73.310;2022-08-21T00:25:18;13.11;77.62
73568;SHT30;61847;54.994;73.310;2022-08-21T00:27:45;13.07;77.81
73568;SHT30;61847;54.994;73.310;2022-08-21T00:30:14;13.12;77.73
73568;SHT30;61847;54.994;73.310;2022-08-21T00:32:41;13.14;77.51
73568;SHT30;61847;54.994;73.310;2022-08-21T00:35:11;13.19;77.21
73568;SHT30;61847;54.994;73.310;2022-08-21T00:37:39;13.18;77.33
73568;SHT30;61847;54.994;73.310;2022-08-21T00:40:08;13.19;76.95
73568;SHT30;61847;54.994;73.310;2022-08-21T00:42:35;13.23;76.92
73568;SHT30;61847;54.994;73.310;2022-08-21T00:45:03;13.26;76.91
73568;SHT30;61847;54.994;73.310;2022-08-21T00:47:29;13.22;77.12
73568;SHT30;61847;54.994;73.310;2022-08-21T00:49:55;13.21;77.17
73568;SHT30;61847;54.994;73.310;2022-08-21T00:52:28;13.22;77.29
73568;SHT30;61847;54.994;73.310;2022-08-21T00:54:57;13.21;77.33
73568;SHT30;61847;54.994;73.310;2022-08-21T00:57:45;13.23;77.58
73568;SHT30;61847;54.994;73.310;2022-08-21T01:00:16;13.25;77.62
73568;SHT30;61847;54.994;73.310;2022-08-21T01:02:44;13.22;77.84
73568;SHT30;61847;54.994;73.310;2022-08-21T01:05:11;13.25;77.72
73568;SHT30;61847;54.994;73.310;2022-08-21T01:07:38;13.25;77.98
73568;SHT30;61847;54.994;73.310;2022-08-21T01:10:15;13.32;77.90
73568;SHT30;61847;54.994;73.310;2022-08-21T01:12:42;13.39;77.91
73568;SHT30;61847;54.994;73.310;2022-08-21T01:15:09;13.41;77.78
73568;SHT30;61847;54.994;73.310;2022-08-21T01:17:36;13.43;77.92
73568;SHT30;61847;54.994;73.310;2022-08-21T01:20:06;13.46;77.87
73568;SHT30;61847;54.994;73.310;2022-08-21T01:22:33;13.49;77.81
73568;SHT30;61847;54.994;73.310;2022-08-21T01:24:59;13.59;77.83
73568;SHT30;61847;54.994;73.310;2022-08-21T01:27:25;13.60;77.82
73568;SHT30;61847;54.994;73.310;2022-08-21T01:29:57;13.59;77.95
73568;SHT30;61847;54.994;73.310;2022-08-21T01:32:35;13.63;78.01
73568;SHT30;61847;54.994;73.310;2022-08-21T01:35:03;13.65;78.18
73568;SHT30;61847;54.994;73.310;2022-08-21T01:37:29;13.70;78.14
73568;SHT30;61847;54.994;73.310;2022-08-21T01:39:56;13.76;78.24
73568;SHT30;61847;54.994;73.310;2022-08-21T01:42:22;13.77;78.26
73568;SHT30;61847;54.994;73.310;2022-08-21T01:44:48;13.83;78.17
73568;SHT30;61847;54.994;73.310;2022-08-21T01:47:15;13.89;78.26
73568;SHT30;61847;54.994;73.310;2022-08-21T01:49:42;13.87;78.61
73568;SHT30;61847;54.994;73.310;2022-08-21T01:52:09;13.94;78.56
73568;SHT30;61847;54.994;73.310;2022-08-21T01:54:35;14.00;78.39
73568;SHT30;61847;54.994;73.310;2022-08-21T01:57:04;14.13;78.29
73568;SHT30;61847;54.994;73.310;2022-08-21T01:59:30;14.14;78.38
73568;SHT30;61847;54.994;73.310;2022-08-21T02:01:56;14.22;78.39
73568;SHT30;61847;54.994;73.310;2022-08-21T02:04:26;14.29;78.10
73568;SHT30;61847;54.994;73.310;2022-08-21T02:06:52;14.36;77.96
73568;SHT30;61847;54.994;73.310;2022-08-21T02:09:18;14.41;77.82
73568;SHT30;61847;54.994;73.310;2022-08-21T02:11:45;14.48;77.72
73568;SHT30;61847;54.994;73.310;2022-08-21T02:14:12;14.55;77.54
73568;SHT30;61847;54.994;73.310;2022-08-21T02:16:41;14.61;77.26
73568;SHT30;61847;54.994;73.310;2022-08-21T02:19:16;14.66;77.25
73568;SHT30;61847;54.994;73.310;2022-08-21T02:21:42;14.71;77.25
73568;SHT30;61847;54.994;73.310;2022-08-21T02:24:09;14.73;77.09
73568;SHT30;61847;54.994;73.310;2022-08-21T02:26:36;14.77;76.98
73568;SHT30;61847;54.994;73.310;2022-08-21T02:29:12;14.80;76.99
73568;SHT30;61847;54.994;73.310;2022-08-21T02:31:39;14.80;77.16
73568;SHT30;61847;54.994;73.310;2022-08-21T02:34:05;14.89;76.91
73568;SHT30;61847;54.994;73.310;2022-08-21T02:36:41;14.93;76.87
73568;SHT30;61847;54.994;73.310;2022-08-21T02:39:07;14.97;76.81
73568;SHT30;61847;54.994;73.310;2022-08-21T02:41:33;15.13;76.72
73568;SHT30;61847;54.994;73.310;2022-08-21T02:43:59;15.26;76.41
73568;SHT30;61847;54.994;73.310;2022-08-21T02:46:25;15.37;76.25
73568;SHT30;61847;54.994;73.310;2022-08-21T02:48:51;15.42;76.10
73568;SHT30;61847;54.994;73.310;2022-08-21T02:51:19;15.42;76.16
73568;SHT30;61847;54.994;73.310;2022-08-21T02:53:49;15.47;76.11
73568;SHT30;61847;54.994;73.310;2022-08-21T02:56:17;15.45;76.13
73568;SHT30;61847;54.994;73.310;2022-08-21T02:58:47;15.52;76.20
73568;SHT30;61847;54.994;73.310;2022-08-21T03:01:13;15.54;76.23
73568;SHT30;61847;54.994;73.310;2022-08-21T03:03:41;15.51;76.36
73568;SHT30;61847;54.994;73.310;2022-08-21T03:06:10;15.40;76.72
73568;SHT30;61847;54.994;73.310;2022-08-21T03:08:37;15.41;76.76
73568;SHT30;61847;54.994;73.310;2022-08-21T03:11:04;15.45;76.85
73568;SHT30;61847;54.994;73.310;2022-08-21T03:13:31;15.47;76.87
73568;SHT30;61847;54.994;73.310;2022-08-21T03:15:57;15.47;77.14
73568;SHT30;61847;54.994;73.310;2022-08-21T03:18:24;15.44;77.41
73568;SHT30;61847;54.994;73.310;2022-08-21T03:20:50;15.51;77.38
73568;SHT30;61847;54.994;73.310;2022-08-21T03:23:17;15.48;77.41
73568;SHT30;61847;54.994;73.310;2022-08-21T03:25:49;15.52;77.68
73568;SHT30;61847;54.994;73.310;2022-08-21T03:28:19;15.52;78.21
73568;SHT30;61847;54.994;73.310;2022-08-21T03:30:49;15.57;78.12
73568;SHT30;61847;54.994;73.310;2022-08-21T03:33:16;15.52;78.24
73568;SHT30;61847;54.994;73.310;2022-08-21T03:35:45;15.58;78.07
73568;SHT30;61847;54.994;73.310;2022-08-21T03:38:11;15.65;78.11
73568;SHT30;61847;54.994;73.310;2022-08-21T03:40:50;15.61;78.99
73568;SHT30;61847;54.994;73.310;2022-08-21T03:43:17;15.50;80.10
73568;SHT30;61847;54.994;73.310;2022-08-21T03:45:43;15.45;80.52
73568;SHT30;61847;54.994;73.310;2022-08-21T03:48:14;15.45;81.19
73568;SHT30;61847;54.994;73.310;2022-08-21T03:50:42;15.51;80.79
73568;SHT30;61847;54.994;73.310;2022-08-21T03:53:11;15.50;81.17
73568;SHT30;61847;54.994;73.310;2022-08-21T03:55:37;15.42;81.92
73568;SHT30;61847;54.994;73.310;2022-08-21T03:58:03;15.31;82.44
73568;SHT30;61847;54.994;73.310;2022-08-21T04:00:29;15.28;82.99
73568;SHT30;61847;54.994;73.310;2022-08-21T04:02:56;15.20;82.98
73568;SHT30;61847;54.994;73.310;2022-08-21T04:05:23;15.11;83.23
73568;SHT30;61847;54.994;73.310;2022-08-21T04:07:56;15.11;84.85
73568;SHT30;61847;54.994;73.310;2022-08-21T04:10:24;15.03;84.30
73568;SHT30;61847;54.994;73.310;2022-08-21T04:13:01;14.94;85.02
73568;SHT30;61847;54.994;73.310;2022-08-21T04:15:31;14.93;84.86
73568;SHT30;61847;54.994;73.310;2022-08-21T04:18:04;14.93;85.24
73568;SHT30;61847;54.994;73.310;2022-08-21T04:20:31;14.92;85.29
73568;SHT30;61847;54.994;73.310;2022-08-21T04:22:57;14.90;85.55
73568;SHT30;61847;54.994;73.310;2022-08-21T04:25:26;14.86;85.52
73568;SHT30;61847;54.994;73.310;2022-08-21T04:27:52;14.83;85.94
73568;SHT30;61847;54.994;73.310;2022-08-21T04:30:29;14.79;86.14
73568;SHT30;61847;54.994;73.310;2022-08-21T04:32:56;14.80;86.32
73568;SHT30;61847;54.994;73.310;2022-08-21T04:35:28;14.82;86.09
73568;SHT30;61847;54.994;73.310;2022-08-21T04:37:59;14.80;85.87
73568;SHT30;61847;54.994;73.310;2022-08-21T04:40:27;14.72;86.54
73568;SHT30;61847;54.994;73.310;2022-08-21T04:43:03;14.69;86.88
73568;SHT30;61847;54.994;73.310;2022-08-21T04:45:40;14.75;86.55
73568;SHT30;61847;54.994;73.310;2022-08-21T04:48:09;14.80;86.74
73568;SHT30;61847;54.994;73.310;2022-08-21T04:50:39;14.80;86.68
73568;SHT30;61847;54.994;73.310;2022-08-21T04:53:10;14.80;87.07
73568;SHT30;61847;54.994;73.310;2022-08-21T04:55:43;14.89;86.65
73568;SHT30;61847;54.994;73.310;2022-08-21T04:58:11;14.97;86.66
73568;SHT30;61847;54.994;73.310;2022-08-21T05:00:39;15.00;86.41
73568;SHT30;61847;54.994;73.310;2022-08-21T05:03:06;14.99;86.98
73568;SHT30;61847;54.994;73.310;2022-08-21T05:05:33;15.07;86.74
73568;SHT30;61847;54.994;73.310;2022-08-21T05:08:04;15.11;86.75
73568;SHT30;61847;54.994;73.310;2022-08-21T05:10:32;15.17;86.63
73568;SHT30;61847;54.994;73.310;2022-08-21T05:13:02;15.20;86.49
73568;SHT30;61847;54.994;73.310;2022-08-21T05:15:30;15.21;86.81
73568;SHT30;61847;54.994;73.310;2022-08-21T05:18:06;15.27;86.54
73568;SHT30;61847;54.994;73.310;2022-08-21T05:20:39;15.37;86.47
73568;SHT30;61847;54.994;73.310;2022-08-21T05:23:11;15.45;87.05
73568;SHT30;61847;54.994;73.310;2022-08-21T05:25:38;15.62;86.59
73568;SHT30;61847;54.994;73.310;2022-08-21T05:28:05;15.73;85.86
73568;SHT30;61847;54.994;73.310;2022-08-21T05:30:32;15.69;85.94
73568;SHT30;61847;54.994;73.310;2022-08-21T05:33:00;15.69;86.27
73568;SHT30;61847;54.994;73.310;2022-08-21T05:35:28;15.79;86.35
73568;SHT30;61847;54.994;73.310;2022-08-21T05:37:55;15.82;85.95
73568;SHT30;61847;54.994;73.310;2022-08-21T05:40:23;15.88;85.23
73568;SHT30;61847;54.994;73.310;2022-08-21T05:42:55;16.02;85.35
73568;SHT30;61847;54.994;73.310;2022-08-21T05:45:28;16.05;85.07
73568;SHT30;61847;54.994;73.310;2022-08-21T05:48:07;16.06;84.78
73568;SHT30;61847;54.994;73.310;2022-08-21T05:50:34;16.18;84.79
73568;SHT30;61847;54.994;73.310;2022-08-21T05:53:00;16.18;84.91
73568;SHT30;61847;54.994;73.310;2022-08-21T05:55:27;16.27;84.01
73568;SHT30;61847;54.994;73.310;2022-08-21T05:57:56;16.38;83.87
73568;SHT30;61847;54.994;73.310;2022-08-21T06:00:27;16.51;83.07
73568;SHT30;61847;54.994;73.310;2022-08-21T06:02:53;16.63;82.74
73568;SHT30;61847;54.994;73.310;2022-08-21T06:05:20;16.71;83.29
73568;SHT30;61847;54.994;73.310;2022-08-21T06:07:46;16.79;83.09
73568;SHT30;61847;54.994;73.310;2022-08-21T06:10:12;16.81;82.33
73568;SHT30;61847;54.994;73.310;2022-08-21T06:12:39;16.79;81.77
73568;SHT30;61847;54.994;73.310;2022-08-21T06:15:05;16.78;82.07
73568;SHT30;61847;54.994;73.310;2022-08-21T06:17:31;16.76;81.72
73568;SHT30;61847;54.994;73.310;2022-08-21T06:19:58;16.74;81.70
73568;SHT30;61847;54.994;73.310;2022-08-21T06:22:24;16.81;82.12
73568;SHT30;61847;54.994;73.310;2022-08-21T06:24:50;16.89;81.99
73568;SHT30;61847;54.994;73.310;2022-08-21T06:27:16;16.95;81.86
73568;SHT30;61847;54.994;73.310;2022-08-21T06:29:43;16.99;81.17
73568;SHT30;61847;54.994;73.310;2022-08-21T06:32:11;17.08;80.82
73568;SHT30;61847;54.994;73.310;2022-08-21T06:34:40;17.08;80.87
73568;SHT30;61847;54.994;73.310;2022-08-21T06:37:07;17.12;81.30
73568;SHT30;61847;54.994;73.310;2022-08-21T06:39:34;17.15;81.76
73568;SHT30;61847;54.994;73.310;2022-08-21T06:42:01;17.26;80.95
73568;SHT30;61847;54.994;73.310;2022-08-21T06:44:30;17.27;81.06
73568;SHT30;61847;54.994;73.310;2022-08-21T06:46:56;17.29;81.54
73568;SHT30;61847;54.994;73.310;2022-08-21T06:49:26;17.33;81.88
73568;SHT30;61847;54.994;73.310;2022-08-21T06:51:52;17.32;81.77
73568;SHT30;61847;54.994;73.310;2022-08-21T06:54:19;17.36;82.01
73568;SHT30;61847;54.994;73.310;2022-08-21T06:56:45;17.41;82.18
73568;SHT30;61847;54.994;73.310;2022-08-21T06:59:11;17.43;82.08
73568;SHT30;61847;54.994;73.310;2022-08-21T07:01:37;17.41;81.96
73568;SHT30;61847;54.994;73.310;2022-08-21T07:04:07;17.34;83.23
73568;SHT30;61847;54.994;73.310;2022-08-21T07:06:37;17.26;83.15
73568;SHT30;61847;54.994;73.310;2022-08-21T07:09:12;17.24;82.64
73568;SHT30;61847;54.994;73.310;2022-08-21T07:11:45;17.15;83.79
73568;SHT30;61847;54.994;73.310;2022-08-21T07:14:14;17.11;84.11
73568;SHT30;61847;54.994;73.310;2022-08-21T07:16:41;17.06;84.32
73568;SHT30;61847;54.994;73.310;2022-08-21T07:19:07;16.92;84.87
73568;SHT30;61847;54.994;73.310;2022-08-21T07:21:38;16.79;85.99
73568;SHT30;61847;54.994;73.310;2022-08-21T07:24:10;16.68;85.92
73568;SHT30;61847;54.994;73.310;2022-08-21T07:26:36;16.64;86.79
73568;SHT30;61847;54.994;73.310;2022-08-21T07:29:02;16.68;86.07
73568;SHT30;61847;54.994;73.310;2022-08-21T07:31:29;16.67;86.18
73568;SHT30;61847;54.994;73.310;2022-08-21T07:34:05;16.50;85.49
73568;SHT30;61847;54.994;73.310;2022-08-21T07:36:31;16.34;85.10
73568;SHT30;61847;54.994;73.310;2022-08-21T07:38:57;16.34;85.41
73568;SHT30;61847;54.994;73.310;2022-08-21T07:41:33;16.33;85.41
73568;SHT30;61847;54.994;73.310;2022-08-21T07:44:00;16.46;85.01
73568;SHT30;61847;54.994;73.310;2022-08-21T07:46:32;16.60;84.85
73568;SHT30;61847;54.994;73.310;2022-08-21T07:48:58;16.67;85.35
73568;SHT30;61847;54.994;73.310;2022-08-21T07:51:26;16.74;84.52
73568;SHT30;61847;54.994;73.310;2022-08-21T07:53:55;16.71;82.81
73568;SHT30;61847;54.994;73.310;2022-08-21T07:56:22;16.60;83.81
73568;SHT30;61847;54.994;73.310;2022-08-21T07:58:49;16.51;84.33
73568;SHT30;61847;54.994;73.310;2022-08-21T08:01:15;16.40;84.02
73568;SHT30;61847;54.994;73.310;2022-08-21T08:03:42;16.23;84.06
73568;SHT30;61847;54.994;73.310;2022-08-21T08:06:08;16.24;83.79
73568;SHT30;61847;54.994;73.310;2022-08-21T08:08:41;16.23;83.94
73568;SHT30;61847;54.994;73.310;2022-08-21T08:11:18;16.17;84.17
73568;SHT30;61847;54.994;73.310;2022-08-21T08:13:47;16.27;83.48
73568;SHT30;61847;54.994;73.310;2022-08-21T08:16:14;16.34;83.18
73568;SHT30;61847;54.994;73.310;2022-08-21T08:18:40;16.34;82.53
73568;SHT30;61847;54.994;73.310;2022-08-21T08:21:08;16.13;82.79
73568;SHT30;61847;54.994;73.310;2022-08-21T08:23:35;16.09;83.05
73568;SHT30;61847;54.994;73.310;2022-08-21T08:26:01;16.02;82.84
73568;SHT30;61847;54.994;73.310;2022-08-21T08:28:30;16.17;82.32
73568;SHT30;61847;54.994;73.310;2022-08-21T08:30:59;16.27;81.84
73568;SHT30;61847;54.994;73.310;2022-08-21T08:33:25;16.23;81.59
73568;SHT30;61847;54.994;73.310;2022-08-21T08:35:53;16.24;81.69
73568;SHT30;61847;54.994;73.310;2022-08-21T08:38:20;16.21;81.08
73568;SHT30;61847;54.994;73.310;2022-08-21T08:43:50;16.16;81.08
73568;SHT30;61847;54.994;73.310;2022-08-21T08:46:20;16.00;81.01
73568;SHT30;61847;54.994;73.310;2022-08-21T08:48:52;16.09;81.58
73568;SHT30;61847;54.994;73.310;2022-08-21T08:54:02;16.26;79.75
73568;SHT30;61847;54.994;73.310;2022-08-21T08:56:33;16.16;79.43
73568;SHT30;61847;54.994;73.310;2022-08-21T08:59:15;16.12;79.55
73568;SHT30;61847;54.994;73.310;2022-08-21T09:01:44;16.10;79.25
73568;SHT30;61847;54.994;73.310;2022-08-21T09:04:11;16.05;79.75
73568;SHT30;61847;54.994;73.310;2022-08-21T09:09:41;15.95;79.57
73568;SHT30;61847;54.994;73.310;2022-08-21T09:12:18;15.85;80.10
73568;SHT30;61847;54.994;73.310;2022-08-21T09:20:37;16.09;77.91
73568;SHT30;61847;54.994;73.310;2022-08-21T09:23:33;16.02;78.25
73568;SHT30;61847;54.994;73.310;2022-08-21T09:26:16;15.99;78.87
73568;SHT30;61847;54.994;73.310;2022-08-21T09:28:44;15.92;77.99
73568;SHT30;61847;54.994;73.310;2022-08-21T09:31:32;15.69;78.71
73568;SHT30;61847;54.994;73.310;2022-08-21T09:34:04;15.66;79.23
73568;SHT30;61847;54.994;73.310;2022-08-21T09:36:51;15.69;78.86
73568;SHT30;61847;54.994;73.310;2022-08-21T09:39:31;15.57;78.97
73568;SHT30;61847;54.994;73.310;2022-08-21T09:42:04;15.58;79.77
73568;SHT30;61847;54.994;73.310;2022-08-21T09:44:34;15.48;79.77
73568;SHT30;61847;54.994;73.310;2022-08-21T09:47:08;15.45;79.41
73568;SHT30;61847;54.994;73.310;2022-08-21T09:49:37;15.52;78.98
73568;SHT30;61847;54.994;73.310;2022-08-21T09:52:20;15.73;78.06
73568;SHT30;61847;54.994;73.310;2022-08-21T09:54:51;15.75;77.42
73568;SHT30;61847;54.994;73.310;2022-08-21T09:57:26;15.95;77.33
73568;SHT30;61847;54.994;73.310;2022-08-21T10:00:18;16.26;75.83
73568;SHT30;61847;54.994;73.310;2022-08-21T10:02:45;16.48;75.19
73568;SHT30;61847;54.994;73.310;2022-08-21T10:05:24;16.33;75.13
73568;SHT30;61847;54.994;73.310;2022-08-21T10:07:51;16.37;75.27
73568;SHT30;61847;54.994;73.310;2022-08-21T10:10:25;16.34;75.35
73568;SHT30;61847;54.994;73.310;2022-08-21T10:13:11;16.46;75.52
73568;SHT30;61847;54.994;73.310;2022-08-21T10:16:02;16.27;74.63
73568;SHT30;61847;54.994;73.310;2022-08-21T10:18:38;16.23;74.60
73568;SHT30;61847;54.994;73.310;2022-08-21T10:21:21;16.34;74.70
73568;SHT30;61847;54.994;73.310;2022-08-21T10:26:45;16.21;75.07
73568;SHT30;61847;54.994;73.310;2022-08-21T10:29:42;16.16;74.72
73568;SHT30;61847;54.994;73.310;2022-08-21T10:40:56;15.16;77.45
73568;SHT30;61847;54.994;73.310;2022-08-21T10:43:52;15.21;76.83
73568;SHT30;61847;54.994;73.310;2022-08-21T10:57:37;15.30;75.63
73568;SHT30;61847;54.994;73.310;2022-08-21T11:00:12;15.38;75.63
73568;SHT30;61847;54.994;73.310;2022-08-21T11:02:57;15.48;75.05
73568;SHT30;61847;54.994;73.310;2022-08-21T11:05:35;15.75;74.48
73568;SHT30;61847;54.994;73.310;2022-08-21T11:08:52;15.88;73.98
73568;SHT30;61847;54.994;73.310;2022-08-21T11:11:07;16.02;73.26
73568;SHT30;61847;54.994;73.310;2022-08-21T11:13:44;15.93;74.39
73568;SHT30;61847;54.994;73.310;2022-08-21T11:18:45;16.06;73.30
73568;SHT30;61847;54.994;73.310;2022-08-21T11:27:23;16.40;70.84
73568;SHT30;61847;54.994;73.310;2022-08-21T11:29:54;16.38;70.52
73568;SHT30;61847;54.994;73.310;2022-08-21T11:32:58;16.43;69.59
73568;SHT30;61847;54.994;73.310;2022-08-21T11:35:46;16.58;69.49
73568;SHT30;61847;54.994;73.310;2022-08-21T11:41:00;16.61;68.24
73568;SHT30;61847;54.994;73.310;2022-08-21T11:43:40;16.76;68.26
73568;SHT30;61847;54.994;73.310;2022-08-21T11:52:01;16.53;68.33
73568;SHT30;61847;54.994;73.310;2022-08-21T11:54:53;16.61;66.70
73568;SHT30;61847;54.994;73.310;2022-08-21T11:57:35;16.63;66.83
73568;SHT30;61847;54.994;73.310;2022-08-21T12:00:15;16.47;66.69
73568;SHT30;61847;54.994;73.310;2022-08-21T12:02:53;16.68;67.34
73568;SHT30;61847;54.994;73.310;2022-08-21T12:05:33;16.78;66.40
73568;SHT30;61847;54.994;73.310;2022-08-21T12:08:04;17.06;64.83
73568;SHT30;61847;54.994;73.310;2022-08-21T12:10:45;16.91;64.65
73568;SHT30;61847;54.994;73.310;2022-08-21T12:13:26;16.89;64.45
73568;SHT30;61847;54.994;73.310;2022-08-21T12:16:05;16.75;64.87
73568;SHT30;61847;54.994;73.310;2022-08-21T12:18:31;16.92;65.45
73568;SHT30;61847;54.994;73.310;2022-08-21T12:21:21;16.88;64.68
73568;SHT30;61847;54.994;73.310;2022-08-21T12:26:46;16.79;63.00
73568;SHT30;61847;54.994;73.310;2022-08-21T12:29:26;16.65;62.83
73568;SHT30;61847;54.994;73.310;2022-08-21T12:32:00;16.72;62.42
73568;SHT30;61847;54.994;73.310;2022-08-21T12:34:34;16.75;62.10
73568;SHT30;61847;54.994;73.310;2022-08-21T12:39:49;16.48;62.91
73568;SHT30;61847;54.994;73.310;2022-08-21T12:42:19;16.44;63.05
73568;SHT30;61847;54.994;73.310;2022-08-21T12:47:58;16.21;63.49
73568;SHT30;61847;54.994;73.310;2022-08-21T12:50:41;16.10;64.95
73568;SHT30;61847;54.994;73.310;2022-08-21T12:53:15;16.05;64.66
73568;SHT30;61847;54.994;73.310;2022-08-21T12:55:43;16.03;65.06
73568;SHT30;61847;54.994;73.310;2022-08-21T12:58:21;15.98;64.95
73568;SHT30;61847;54.994;73.310;2022-08-21T13:01:03;15.96;65.07
73568;SHT30;61847;54.994;73.310;2022-08-21T13:03:31;15.96;65.11
73568;SHT30;61847;54.994;73.310;2022-08-21T13:05:58;15.89;65.15
73568;SHT30;61847;54.994;73.310;2022-08-21T13:08:33;15.99;64.81
73568;SHT30;61847;54.994;73.310;2022-08-21T13:11:05;16.00;65.43
73568;SHT30;61847;54.994;73.310;2022-08-21T13:13:32;15.88;65.81
73568;SHT30;61847;54.994;73.310;2022-08-21T13:16:03;15.73;65.30
73568;SHT30;61847;54.994;73.310;2022-08-21T13:18:33;15.82;64.31
73568;SHT30;61847;54.994;73.310;2022-08-21T13:21:11;15.73;64.09
73568;SHT30;61847;54.994;73.310;2022-08-21T13:23:37;15.73;63.81
73568;SHT30;61847;54.994;73.310;2022-08-21T13:26:19;15.55;64.01
73568;SHT30;61847;54.994;73.310;2022-08-21T13:28:47;15.55;64.07
73568;SHT30;61847;54.994;73.310;2022-08-21T13:31:29;15.71;63.50
73568;SHT30;61847;54.994;73.310;2022-08-21T13:34:01;15.65;64.36
73568;SHT30;61847;54.994;73.310;2022-08-21T13:36:35;15.52;64.42
73568;SHT30;61847;54.994;73.310;2022-08-21T13:39:04;15.54;64.08
73568;SHT30;61847;54.994;73.310;2022-08-21T13:41:34;15.54;64.59
73568;SHT30;61847;54.994;73.310;2022-08-21T13:44:18;15.48;64.85
73568;SHT30;61847;54.994;73.310;2022-08-21T13:46:45;15.40;65.61
73568;SHT30;61847;54.994;73.310;2022-08-21T13:49:16;15.35;64.98
73568;SHT30;61847;54.994;73.310;2022-08-21T13:51:43;15.40;65.70
73568;SHT30;61847;54.994;73.310;2022-08-21T13:54:16;15.40;65.90
73568;SHT30;61847;54.994;73.310;2022-08-21T13:56:51;15.38;65.29
73568;SHT30;61847;54.994;73.310;2022-08-21T13:59:31;15.37;65.43
73568;SHT30;61847;54.994;73.310;2022-08-21T14:04:59;15.40;64.78
73568;SHT30;61847;54.994;73.310;2022-08-21T14:07:29;15.32;64.01
73568;SHT30;61847;54.994;73.310;2022-08-21T14:10:01;15.26;63.98
73568;SHT30;61847;54.994;73.310;2022-08-21T14:12:41;15.27;63.16
73568;SHT30;61847;54.994;73.310;2022-08-21T14:15:10;15.23;61.62
73568;SHT30;61847;54.994;73.310;2022-08-21T14:17:40;15.14;61.68
73568;SHT30;61847;54.994;73.310;2022-08-21T14:20:11;15.19;61.49
73568;SHT30;61847;54.994;73.310;2022-08-21T14:22:44;15.13;60.95
73568;SHT30;61847;54.994;73.310;2022-08-21T14:27:42;14.99;61.31
73568;SHT30;61847;54.994;73.310;2022-08-21T14:30:33;14.94;62.26
73568;SHT30;61847;54.994;73.310;2022-08-21T14:33:01;14.80;61.96
73568;SHT30;61847;54.994;73.310;2022-08-21T14:35:28;14.93;61.91
73568;SHT30;61847;54.994;73.310;2022-08-21T14:37:54;14.71;62.92
73568;SHT30;61847;54.994;73.310;2022-08-21T14:40:28;14.58;63.44
73568;SHT30;61847;54.994;73.310;2022-08-21T14:42:54;14.72;62.92
73568;SHT30;61847;54.994;73.310;2022-08-21T14:45:29;14.68;63.30
73568;SHT30;61847;54.994;73.310;2022-08-21T14:48:07;14.61;63.40
73568;SHT30;61847;54.994;73.310;2022-08-21T14:50:35;14.49;63.86
73568;SHT30;61847;54.994;73.310;2022-08-21T14:53:02;14.54;64.07
73568;SHT30;61847;54.994;73.310;2022-08-21T14:55:31;14.36;64.55
73568;SHT30;61847;54.994;73.310;2022-08-21T14:58:18;14.18;65.04
73568;SHT30;61847;54.994;73.310;2022-08-21T15:00:44;14.20;65.27
73568;SHT30;61847;54.994;73.310;2022-08-21T15:03:10;14.14;65.05
73568;SHT30;61847;54.994;73.310;2022-08-21T15:05:36;14.13;65.12
73568;SHT30;61847;54.994;73.310;2022-08-21T15:08:07;13.97;65.52
73568;SHT30;61847;54.994;73.310;2022-08-21T15:10:34;13.94;65.81
73568;SHT30;61847;54.994;73.310;2022-08-21T15:13:01;13.80;66.41
73568;SHT30;61847;54.994;73.310;2022-08-21T15:15:32;13.83;66.34
73568;SHT30;61847;54.994;73.310;2022-08-21T15:17:59;13.76;66.24
73568;SHT30;61847;54.994;73.310;2022-08-21T15:20:26;13.67;66.67
73568;SHT30;61847;54.994;73.310;2022-08-21T15:22:52;13.63;66.80
73568;SHT30;61847;54.994;73.310;2022-08-21T15:25:18;13.63;67.20
73568;SHT30;61847;54.994;73.310;2022-08-21T15:27:44;13.60;67.20
73568;SHT30;61847;54.994;73.310;2022-08-21T15:30:10;13.66;66.71
73568;SHT30;61847;54.994;73.310;2022-08-21T15:32:37;13.66;66.58
73568;SHT30;61847;54.994;73.310;2022-08-21T15:35:11;13.55;66.97
73568;SHT30;61847;54.994;73.310;2022-08-21T15:37:38;13.63;66.63
73568;SHT30;61847;54.994;73.310;2022-08-21T15:40:05;13.55;66.60
73568;SHT30;61847;54.994;73.310;2022-08-21T15:42:33;13.58;66.36
73568;SHT30;61847;54.994;73.310;2022-08-21T15:45:00;13.53;66.19
73568;SHT30;61847;54.994;73.310;2022-08-21T15:47:32;13.42;66.25
73568;SHT30;61847;54.994;73.310;2022-08-21T15:50:00;13.41;66.09
73568;SHT30;61847;54.994;73.310;2022-08-21T15:52:26;13.34;65.81
73568;SHT30;61847;54.994;73.310;2022-08-21T15:54:53;13.29;65.93
73568;SHT30;61847;54.994;73.310;2022-08-21T15:57:22;13.23;65.89
73568;SHT30;61847;54.994;73.310;2022-08-21T15:59:56;13.25;65.39
73568;SHT30;61847;54.994;73.310;2022-08-21T16:02:30;13.18;65.08
73568;SHT30;61847;54.994;73.310;2022-08-21T16:04:58;13.15;64.79
73568;SHT30;61847;54.994;73.310;2022-08-21T16:07:30;13.11;64.36
73568;SHT30;61847;54.994;73.310;2022-08-21T16:10:01;13.16;63.59
73568;SHT30;61847;54.994;73.310;2022-08-21T16:12:32;13.25;63.14
73568;SHT30;61847;54.994;73.310;2022-08-21T16:15:01;13.26;63.56
73568;SHT30;61847;54.994;73.310;2022-08-21T16:17:31;13.26;62.60
73568;SHT30;61847;54.994;73.310;2022-08-21T16:20:12;13.26;62.40
73568;SHT30;61847;54.994;73.310;2022-08-21T16:22:44;13.36;62.26
73568;SHT30;61847;54.994;73.310;2022-08-21T16:25:12;13.43;61.76
73568;SHT30;61847;54.994;73.310;2022-08-21T16:27:40;13.45;61.71
73568;SHT30;61847;54.994;73.310;2022-08-21T16:30:08;13.42;61.31
73568;SHT30;61847;54.994;73.310;2022-08-21T16:32:35;13.48;61.39
73568;SHT30;61847;54.994;73.310;2022-08-21T16:35:02;13.49;61.51
73568;SHT30;61847;54.994;73.310;2022-08-21T16:37:29;13.39;60.88
73568;SHT30;61847;54.994;73.310;2022-08-21T16:40:00;13.35;61.31
73568;SHT30;61847;54.994;73.310;2022-08-21T16:42:26;13.36;61.22
73568;SHT30;61847;54.994;73.310;2022-08-21T16:44:53;13.42;61.47